sensor_id;sensor_type;location;lat;lon;timestamp;P1;durP1;ratioP1;P2;durP2;ratioP2
74042;SDS011;62384;53.600;10.040;2023-03-01T00:01:21;28.95;;;7.43;;
74042;SDS011;62384;53.600;10.040;2023-03-01T00:03:48;12.75;;;6.68;;
74042;SDS011;62384;53.600;10.040;2023-03-01T00:06:14;13.95;;;7.05;;
74042;SDS011;62384;53.600;10.040;2023-03-01T00:08:40;15.98;;;6.38;;
74042;SDS011;62384;53.600;10.040;2023-03-01T00:13:38;18.75;;;7.50;;
74042;SDS011;62384;53.600;10.040;2023-03-01T00:16:05;17.42;;;6.68;;
74042;SDS011;62384;53.600;10.040;2023-03-01T00:18:31;14.82;;;5.70;;
74042;SDS011;62384;53.600;10.040;2023-03-01T00:20:57;15.35;;;7.28;;
74042;SDS011;62384;53.600;10.040;2023-03-01T00:23:23;15.40;;;6.95;;
74042;SDS011;62384;53.600;10.040;2023-03-01T00:25:49;13.77;;;6.38;;
74042;SDS011;62384;53.600;10.040;2023-03-01T00:28:15;15.95;;;6.63;;
74042;SDS011;62384;53.600;10.040;2023-03-01T00:30:41;11.82;;;5.82;;
74042;SDS011;62384;53.600;10.040;2023-03-01T00:33:06;20.67;;;6.22;;
74042;SDS011;62384;53.600;10.040;2023-03-01T00:35:32;15.13;;;6.03;;
74042;SDS011;62384;53.600;10.040;2023-03-01T00:37:58;17.13;;;6.68;;
74042;SDS011;62384;53.600;10.040;2023-03-01T00:40:24;13.20;;;5.25;;
74042;SDS011;62384;53.600;10.040;2023-03-01T00:42:50;13.18;;;6.10;;
74042;SDS011;62384;53.600;10.040;2023-03-01T00:45:15;18.45;;;6.00;;
74042;SDS011;62384;53.600;10.040;2023-03-01T00:47:41;15.82;;;5.95;;
74042;SDS011;62384;53.600;10.040;2023-03-01T00:50:07;12.70;;;6.63;;
74042;SDS011;62384;53.600;10.040;2023-03-01T00:52:33;16.05;;;6.05;;
74042;SDS011;62384;53.600;10.040;2023-03-01T00:54:58;14.23;;;6.00;;
74042;SDS011;62384;53.600;10.040;2023-03-01T00:57:23;14.32;;;5.75;;
74042;SDS011;62384;53.600;10.040;2023-03-01T00:59:49;12.13;;;5.55;;
74042;SDS011;62384;53.600;10.040;2023-03-01T01:02:14;19.40;;;6.47;;
74042;SDS011;62384;53.600;10.040;2023-03-01T01:04:39;13.30;;;6.10;;
74042;SDS011;62384;53.600;10.040;2023-03-01T01:07:05;14.23;;;6.75;;
74042;SDS011;62384;53.600;10.040;2023-03-01T01:09:30;18.17;;;6.03;;
74042;SDS011;62384;53.600;10.040;2023-03-01T01:11:56;14.25;;;6.00;;
74042;SDS011;62384;53.600;10.040;2023-03-01T01:14:21;11.98;;;5.80;;
74042;SDS011;62384;53.600;10.040;2023-03-01T01:16:47;13.50;;;5.85;;
74042;SDS011;62384;53.600;10.040;2023-03-01T01:19:12;16.65;;;6.75;;
74042;SDS011;62384;53.600;10.040;2023-03-01T01:21:38;14.10;;;5.75;;
74042;SDS011;62384;53.600;10.040;2023-03-01T01:24:04;11.50;;;6.20;;
74042;SDS011;62384;53.600;10.040;2023-03-01T01:26:31;18.52;;;6.55;;
74042;SDS011;62384;53.600;10.040;2023-03-01T01:28:58;17.83;;;6.72;;
74042;SDS011;62384;53.600;10.040;2023-03-01T01:31:24;18.00;;;6.32;;
74042;SDS011;62384;53.600;10.040;2023-03-01T01:33:50;14.85;;;6.30;;
74042;SDS011;62384;53.600;10.040;2023-03-01T01:36:19;20.45;;;6.97;;
74042;SDS011;62384;53.600;10.040;2023-03-01T01:38:46;13.80;;;5.75;;
74042;SDS011;62384;53.600;10.040;2023-03-01T01:41:12;10.38;;;6.13;;
74042;SDS011;62384;53.600;10.040;2023-03-01T01:43:39;14.60;;;6.88;;
74042;SDS011;62384;53.600;10.040;2023-03-01T01:46:10;15.20;;;6.00;;
74042;SDS011;62384;53.600;10.040;2023-03-01T01:48:55;17.67;;;6.65;;
74042;SDS011;62384;53.600;10.040;2023-03-01T01:51:28;17.73;;;6.47;;
74042;SDS011;62384;53.600;10.040;2023-03-01T01:54:03;18.15;;;6.43;;
74042;SDS011;62384;53.600;10.040;2023-03-01T01:56:32;14.32;;;5.85;;
74042;SDS011;62384;53.600;10.040;2023-03-01T01:58:58;12.43;;;5.82;;
74042;SDS011;62384;53.600;10.040;2023-03-01T02:01:23;14.05;;;5.65;;
74042;SDS011;62384;53.600;10.040;2023-03-01T02:03:49;12.00;;;5.18;;
74042;SDS011;62384;53.600;10.040;2023-03-01T02:06:18;11.30;;;5.57;;
74042;SDS011;62384;53.600;10.040;2023-03-01T02:08:47;13.90;;;5.25;;
74042;SDS011;62384;53.600;10.040;2023-03-01T02:11:14;10.75;;;5.13;;
74042;SDS011;62384;53.600;10.040;2023-03-01T02:13:40;16.65;;;5.07;;
74042;SDS011;62384;53.600;10.040;2023-03-01T02:16:09;17.05;;;5.97;;
74042;SDS011;62384;53.600;10.040;2023-03-01T02:18:38;15.85;;;5.75;;
74042;SDS011;62384;53.600;10.040;2023-03-01T02:21:10;13.45;;;5.88;;
74042;SDS011;62384;53.600;10.040;2023-03-01T02:23:42;12.55;;;5.78;;
74042;SDS011;62384;53.600;10.040;2023-03-01T02:26:11;15.75;;;5.60;;
74042;SDS011;62384;53.600;10.040;2023-03-01T02:28:45;16.45;;;6.45;;
74042;SDS011;62384;53.600;10.040;2023-03-01T02:31:10;17.48;;;7.30;;
74042;SDS011;62384;53.600;10.040;2023-03-01T02:34:00;14.45;;;6.63;;
74042;SDS011;62384;53.600;10.040;2023-03-01T02:36:26;14.80;;;6.93;;
74042;SDS011;62384;53.600;10.040;2023-03-01T02:38:56;14.60;;;6.50;;
74042;SDS011;62384;53.600;10.040;2023-03-01T02:41:25;13.27;;;5.85;;
74042;SDS011;62384;53.600;10.040;2023-03-01T02:43:52;15.88;;;6.70;;
74042;SDS011;62384;53.600;10.040;2023-03-01T02:46:19;14.68;;;6.78;;
74042;SDS011;62384;53.600;10.040;2023-03-01T02:48:51;17.38;;;7.38;;
74042;SDS011;62384;53.600;10.040;2023-03-01T02:51:34;15.23;;;7.25;;
74042;SDS011;62384;53.600;10.040;2023-03-01T02:56:59;14.20;;;7.10;;
74042;SDS011;62384;53.600;10.040;2023-03-01T02:59:26;14.32;;;6.30;;
74042;SDS011;62384;53.600;10.040;2023-03-01T03:01:56;12.85;;;6.15;;
74042;SDS011;62384;53.600;10.040;2023-03-01T03:04:21;15.23;;;5.28;;
74042;SDS011;62384;53.600;10.040;2023-03-01T03:06:47;10.88;;;5.25;;
74042;SDS011;62384;53.600;10.040;2023-03-01T03:09:14;11.07;;;5.18;;
74042;SDS011;62384;53.600;10.040;2023-03-01T03:11:41;8.50;;;4.90;;
74042;SDS011;62384;53.600;10.040;2023-03-01T03:14:08;11.07;;;4.78;;
74042;SDS011;62384;53.600;10.040;2023-03-01T03:16:45;9.65;;;5.25;;
74042;SDS011;62384;53.600;10.040;2023-03-01T03:19:12;11.18;;;5.75;;
74042;SDS011;62384;53.600;10.040;2023-03-01T03:21:38;10.80;;;5.07;;
74042;SDS011;62384;53.600;10.040;2023-03-01T03:24:03;10.38;;;5.32;;
74042;SDS011;62384;53.600;10.040;2023-03-01T03:26:29;10.38;;;5.07;;
74042;SDS011;62384;53.600;10.040;2023-03-01T03:28:54;14.65;;;5.05;;
74042;SDS011;62384;53.600;10.040;2023-03-01T03:31:20;14.00;;;5.40;;
74042;SDS011;62384;53.600;10.040;2023-03-01T03:33:45;10.10;;;5.18;;
74042;SDS011;62384;53.600;10.040;2023-03-01T03:36:15;11.40;;;5.68;;
74042;SDS011;62384;53.600;10.040;2023-03-01T03:38:42;13.50;;;5.05;;
74042;SDS011;62384;53.600;10.040;2023-03-01T03:41:08;8.85;;;4.18;;
74042;SDS011;62384;53.600;10.040;2023-03-01T03:43:34;9.30;;;4.47;;
74042;SDS011;62384;53.600;10.040;2023-03-01T03:46:02;12.48;;;4.93;;
74042;SDS011;62384;53.600;10.040;2023-03-01T03:48:34;8.60;;;4.75;;
74042;SDS011;62384;53.600;10.040;2023-03-01T03:51:02;6.90;;;4.05;;
74042;SDS011;62384;53.600;10.040;2023-03-01T03:53:30;11.73;;;4.95;;
74042;SDS011;62384;53.600;10.040;2023-03-01T03:55:55;10.68;;;5.63;;
74042;SDS011;62384;53.600;10.040;2023-03-01T03:58:22;7.85;;;4.45;;
74042;SDS011;62384;53.600;10.040;2023-03-01T04:00:49;13.60;;;4.78;;
74042;SDS011;62384;53.600;10.040;2023-03-01T04:03:16;7.85;;;4.47;;
74042;SDS011;62384;53.600;10.040;2023-03-01T04:05:43;10.63;;;4.80;;
74042;SDS011;62384;53.600;10.040;2023-03-01T04:08:09;11.00;;;4.60;;
74042;SDS011;62384;53.600;10.040;2023-03-01T04:10:36;7.78;;;4.40;;
74042;SDS011;62384;53.600;10.040;2023-03-01T04:13:04;18.75;;;4.70;;
74042;SDS011;62384;53.600;10.040;2023-03-01T04:15:30;8.07;;;4.00;;
74042;SDS011;62384;53.600;10.040;2023-03-01T04:17:57;7.25;;;4.40;;
74042;SDS011;62384;53.600;10.040;2023-03-01T04:20:24;11.57;;;4.05;;
74042;SDS011;62384;53.600;10.040;2023-03-01T04:23:01;9.45;;;3.92;;
74042;SDS011;62384;53.600;10.040;2023-03-01T04:25:48;7.43;;;4.45;;
74042;SDS011;62384;53.600;10.040;2023-03-01T04:28:41;9.10;;;4.82;;
74042;SDS011;62384;53.600;10.040;2023-03-01T04:31:12;5.82;;;3.47;;
74042;SDS011;62384;53.600;10.040;2023-03-01T04:33:39;7.65;;;3.85;;
74042;SDS011;62384;53.600;10.040;2023-03-01T04:36:06;6.63;;;3.80;;
74042;SDS011;62384;53.600;10.040;2023-03-01T04:38:34;8.98;;;4.32;;
74042;SDS011;62384;53.600;10.040;2023-03-01T04:41:02;7.63;;;3.45;;
74042;SDS011;62384;53.600;10.040;2023-03-01T04:43:31;6.03;;;3.42;;
74042;SDS011;62384;53.600;10.040;2023-03-01T04:46:00;7.13;;;3.20;;
74042;SDS011;62384;53.600;10.040;2023-03-01T04:48:28;6.45;;;3.25;;
74042;SDS011;62384;53.600;10.040;2023-03-01T04:50:53;7.22;;;3.38;;
74042;SDS011;62384;53.600;10.040;2023-03-01T04:53:18;9.18;;;3.63;;
74042;SDS011;62384;53.600;10.040;2023-03-01T04:55:43;6.60;;;3.17;;
74042;SDS011;62384;53.600;10.040;2023-03-01T04:58:09;7.25;;;3.55;;
74042;SDS011;62384;53.600;10.040;2023-03-01T05:00:34;8.93;;;4.25;;
74042;SDS011;62384;53.600;10.040;2023-03-01T05:03:00;6.60;;;3.40;;
74042;SDS011;62384;53.600;10.040;2023-03-01T05:05:26;7.00;;;3.28;;
74042;SDS011;62384;53.600;10.040;2023-03-01T05:07:57;6.83;;;3.43;;
74042;SDS011;62384;53.600;10.040;2023-03-01T05:10:25;6.95;;;3.65;;
74042;SDS011;62384;53.600;10.040;2023-03-01T05:12:53;7.28;;;3.85;;
74042;SDS011;62384;53.600;10.040;2023-03-01T05:15:19;6.57;;;3.40;;
74042;SDS011;62384;53.600;10.040;2023-03-01T05:17:46;7.68;;;3.75;;
74042;SDS011;62384;53.600;10.040;2023-03-01T05:20:12;10.10;;;4.57;;
74042;SDS011;62384;53.600;10.040;2023-03-01T05:22:37;8.95;;;3.83;;
74042;SDS011;62384;53.600;10.040;2023-03-01T05:25:03;8.40;;;4.20;;
74042;SDS011;62384;53.600;10.040;2023-03-01T05:27:29;8.23;;;4.30;;
74042;SDS011;62384;53.600;10.040;2023-03-01T05:29:55;8.45;;;4.35;;
74042;SDS011;62384;53.600;10.040;2023-03-01T05:32:20;5.72;;;3.20;;
74042;SDS011;62384;53.600;10.040;2023-03-01T05:34:46;8.70;;;3.83;;
74042;SDS011;62384;53.600;10.040;2023-03-01T05:37:11;7.97;;;3.88;;
74042;SDS011;62384;53.600;10.040;2023-03-01T05:39:38;8.35;;;3.90;;
74042;SDS011;62384;53.600;10.040;2023-03-01T05:42:04;7.22;;;3.40;;
74042;SDS011;62384;53.600;10.040;2023-03-01T05:44:29;6.72;;;3.92;;
74042;SDS011;62384;53.600;10.040;2023-03-01T05:46:55;15.65;;;4.22;;
74042;SDS011;62384;53.600;10.040;2023-03-01T05:49:21;6.20;;;3.25;;
74042;SDS011;62384;53.600;10.040;2023-03-01T05:51:51;9.38;;;4.47;;
74042;SDS011;62384;53.600;10.040;2023-03-01T05:54:18;7.53;;;4.20;;
74042;SDS011;62384;53.600;10.040;2023-03-01T05:56:44;8.68;;;4.47;;
74042;SDS011;62384;53.600;10.040;2023-03-01T05:59:10;11.68;;;4.25;;
74042;SDS011;62384;53.600;10.040;2023-03-01T06:01:35;9.45;;;3.80;;
74042;SDS011;62384;53.600;10.040;2023-03-01T06:04:01;9.60;;;4.38;;
74042;SDS011;62384;53.600;10.040;2023-03-01T06:06:27;7.82;;;3.53;;
74042;SDS011;62384;53.600;10.040;2023-03-01T06:08:54;12.63;;;4.80;;
74042;SDS011;62384;53.600;10.040;2023-03-01T06:11:20;10.60;;;4.30;;
74042;SDS011;62384;53.600;10.040;2023-03-01T06:13:46;8.40;;;3.53;;
74042;SDS011;62384;53.600;10.040;2023-03-01T06:16:12;10.95;;;5.60;;
74042;SDS011;62384;53.600;10.040;2023-03-01T06:18:39;12.73;;;5.03;;
74042;SDS011;62384;53.600;10.040;2023-03-01T06:21:06;14.90;;;5.47;;
74042;SDS011;62384;53.600;10.040;2023-03-01T06:23:32;10.88;;;4.80;;
74042;SDS011;62384;53.600;10.040;2023-03-01T06:25:58;16.98;;;5.63;;
74042;SDS011;62384;53.600;10.040;2023-03-01T06:28:23;12.10;;;5.10;;
74042;SDS011;62384;53.600;10.040;2023-03-01T06:30:49;11.48;;;5.03;;
74042;SDS011;62384;53.600;10.040;2023-03-01T06:33:15;11.45;;;4.95;;
74042;SDS011;62384;53.600;10.040;2023-03-01T06:35:40;18.60;;;5.60;;
74042;SDS011;62384;53.600;10.040;2023-03-01T06:38:05;11.18;;;5.57;;
74042;SDS011;62384;53.600;10.040;2023-03-01T06:40:32;11.82;;;5.72;;
74042;SDS011;62384;53.600;10.040;2023-03-01T06:43:00;11.43;;;5.40;;
74042;SDS011;62384;53.600;10.040;2023-03-01T06:45:26;10.73;;;5.20;;
74042;SDS011;62384;53.600;10.040;2023-03-01T06:47:51;15.65;;;5.88;;
74042;SDS011;62384;53.600;10.040;2023-03-01T06:50:16;13.38;;;5.18;;
74042;SDS011;62384;53.600;10.040;2023-03-01T06:52:43;14.75;;;5.30;;
74042;SDS011;62384;53.600;10.040;2023-03-01T06:55:11;14.45;;;5.40;;
74042;SDS011;62384;53.600;10.040;2023-03-01T06:57:41;11.65;;;4.63;;
74042;SDS011;62384;53.600;10.040;2023-03-01T07:00:07;11.73;;;4.55;;
74042;SDS011;62384;53.600;10.040;2023-03-01T07:02:33;10.23;;;4.97;;
74042;SDS011;62384;53.600;10.040;2023-03-01T07:04:58;9.98;;;3.83;;
74042;SDS011;62384;53.600;10.040;2023-03-01T07:07:23;9.85;;;4.15;;
74042;SDS011;62384;53.600;10.040;2023-03-01T07:09:49;11.18;;;4.50;;
74042;SDS011;62384;53.600;10.040;2023-03-01T07:12:14;12.98;;;4.75;;
74042;SDS011;62384;53.600;10.040;2023-03-01T07:14:40;13.30;;;4.43;;
74042;SDS011;62384;53.600;10.040;2023-03-01T07:17:05;9.82;;;4.22;;
74042;SDS011;62384;53.600;10.040;2023-03-01T07:19:31;12.10;;;4.28;;
74042;SDS011;62384;53.600;10.040;2023-03-01T07:21:57;13.52;;;4.28;;
74042;SDS011;62384;53.600;10.040;2023-03-01T07:24:22;11.75;;;4.60;;
74042;SDS011;62384;53.600;10.040;2023-03-01T07:26:48;11.50;;;5.07;;
74042;SDS011;62384;53.600;10.040;2023-03-01T07:29:15;13.23;;;4.55;;
74042;SDS011;62384;53.600;10.040;2023-03-01T07:31:40;13.63;;;5.43;;
74042;SDS011;62384;53.600;10.040;2023-03-01T07:34:05;11.32;;;5.05;;
74042;SDS011;62384;53.600;10.040;2023-03-01T07:36:31;12.68;;;5.28;;
74042;SDS011;62384;53.600;10.040;2023-03-01T07:38:56;15.27;;;6.07;;
74042;SDS011;62384;53.600;10.040;2023-03-01T07:41:22;11.27;;;5.38;;
74042;SDS011;62384;53.600;10.040;2023-03-01T07:43:48;12.00;;;6.00;;
74042;SDS011;62384;53.600;10.040;2023-03-01T07:46:13;11.45;;;6.15;;
74042;SDS011;62384;53.600;10.040;2023-03-01T07:48:38;14.73;;;7.20;;
74042;SDS011;62384;53.600;10.040;2023-03-01T07:51:04;14.63;;;6.63;;
74042;SDS011;62384;53.600;10.040;2023-03-01T07:53:31;12.07;;;6.75;;
74042;SDS011;62384;53.600;10.040;2023-03-01T07:56:16;17.17;;;6.85;;
74042;SDS011;62384;53.600;10.040;2023-03-01T07:58:43;13.45;;;7.18;;
74042;SDS011;62384;53.600;10.040;2023-03-01T08:01:10;12.85;;;7.22;;
74042;SDS011;62384;53.600;10.040;2023-03-01T08:03:38;20.52;;;8.23;;
74042;SDS011;62384;53.600;10.040;2023-03-01T08:06:04;22.25;;;8.52;;
74042;SDS011;62384;53.600;10.040;2023-03-01T08:08:32;15.75;;;7.93;;
74042;SDS011;62384;53.600;10.040;2023-03-01T08:10:58;16.67;;;7.85;;
74042;SDS011;62384;53.600;10.040;2023-03-01T08:13:25;17.77;;;7.50;;
74042;SDS011;62384;53.600;10.040;2023-03-01T08:15:50;19.73;;;8.23;;
74042;SDS011;62384;53.600;10.040;2023-03-01T08:18:16;17.45;;;7.35;;
74042;SDS011;62384;53.600;10.040;2023-03-01T08:20:43;17.38;;;7.75;;
74042;SDS011;62384;53.600;10.040;2023-03-01T08:23:08;19.77;;;7.50;;
74042;SDS011;62384;53.600;10.040;2023-03-01T08:25:34;15.00;;;7.00;;
74042;SDS011;62384;53.600;10.040;2023-03-01T08:27:59;17.63;;;7.55;;
74042;SDS011;62384;53.600;10.040;2023-03-01T08:30:25;17.30;;;8.32;;
74042;SDS011;62384;53.600;10.040;2023-03-01T08:32:51;19.35;;;7.97;;
74042;SDS011;62384;53.600;10.040;2023-03-01T08:35:16;17.65;;;7.22;;
74042;SDS011;62384;53.600;10.040;2023-03-01T08:37:42;19.13;;;8.05;;
74042;SDS011;62384;53.600;10.040;2023-03-01T08:40:09;16.33;;;7.72;;
74042;SDS011;62384;53.600;10.040;2023-03-01T08:42:35;17.98;;;8.90;;
74042;SDS011;62384;53.600;10.040;2023-03-01T08:45:01;15.70;;;8.57;;
74042;SDS011;62384;53.600;10.040;2023-03-01T08:47:27;19.67;;;8.60;;
74042;SDS011;62384;53.600;10.040;2023-03-01T08:49:52;17.85;;;8.77;;
74042;SDS011;62384;53.600;10.040;2023-03-01T08:52:19;16.70;;;9.23;;
74042;SDS011;62384;53.600;10.040;2023-03-01T08:54:44;18.90;;;9.35;;
74042;SDS011;62384;53.600;10.040;2023-03-01T08:57:10;17.75;;;9.75;;
74042;SDS011;62384;53.600;10.040;2023-03-01T08:59:35;23.02;;;10.13;;
74042;SDS011;62384;53.600;10.040;2023-03-01T09:02:02;20.98;;;9.40;;
74042;SDS011;62384;53.600;10.040;2023-03-01T09:04:29;22.38;;;10.63;;
74042;SDS011;62384;53.600;10.040;2023-03-01T09:06:54;23.23;;;10.20;;
74042;SDS011;62384;53.600;10.040;2023-03-01T09:09:19;18.25;;;9.10;;
74042;SDS011;62384;53.600;10.040;2023-03-01T09:11:45;20.55;;;10.15;;
74042;SDS011;62384;53.600;10.040;2023-03-01T09:14:19;18.98;;;9.80;;
74042;SDS011;62384;53.600;10.040;2023-03-01T09:16:44;20.17;;;9.70;;
74042;SDS011;62384;53.600;10.040;2023-03-01T09:19:09;20.13;;;10.27;;
74042;SDS011;62384;53.600;10.040;2023-03-01T09:21:36;19.10;;;9.52;;
74042;SDS011;62384;53.600;10.040;2023-03-01T09:24:02;20.17;;;9.20;;
74042;SDS011;62384;53.600;10.040;2023-03-01T09:26:27;17.85;;;9.40;;
74042;SDS011;62384;53.600;10.040;2023-03-01T09:28:55;19.73;;;10.70;;
74042;SDS011;62384;53.600;10.040;2023-03-01T09:31:22;19.30;;;9.32;;
74042;SDS011;62384;53.600;10.040;2023-03-01T09:33:49;19.83;;;9.88;;
74042;SDS011;62384;53.600;10.040;2023-03-01T09:36:18;20.98;;;8.85;;
74042;SDS011;62384;53.600;10.040;2023-03-01T09:38:45;22.80;;;10.40;;
74042;SDS011;62384;53.600;10.040;2023-03-01T09:43:49;18.25;;;8.57;;
74042;SDS011;62384;53.600;10.040;2023-03-01T09:46:19;24.05;;;9.32;;
74042;SDS011;62384;53.600;10.040;2023-03-01T09:48:57;23.02;;;9.32;;
74042;SDS011;62384;53.600;10.040;2023-03-01T09:51:34;18.98;;;8.60;;
74042;SDS011;62384;53.600;10.040;2023-03-01T09:54:04;17.92;;;8.20;;
74042;SDS011;62384;53.600;10.040;2023-03-01T09:56:34;19.45;;;8.02;;
74042;SDS011;62384;53.600;10.040;2023-03-01T10:01:41;20.15;;;7.85;;
74042;SDS011;62384;53.600;10.040;2023-03-01T10:07:05;18.40;;;7.43;;
74042;SDS011;62384;53.600;10.040;2023-03-01T10:09:33;15.00;;;7.10;;
74042;SDS011;62384;53.600;10.040;2023-03-01T10:12:01;14.98;;;7.30;;
74042;SDS011;62384;53.600;10.040;2023-03-01T10:14:35;12.40;;;6.93;;
74042;SDS011;62384;53.600;10.040;2023-03-01T10:17:07;15.43;;;7.57;;
74042;SDS011;62384;53.600;10.040;2023-03-01T10:19:41;10.95;;;6.18;;
74042;SDS011;62384;53.600;10.040;2023-03-01T10:24:43;13.85;;;6.60;;
74042;SDS011;62384;53.600;10.040;2023-03-01T10:27:22;12.77;;;5.85;;
74042;SDS011;62384;53.600;10.040;2023-03-01T10:30:02;14.20;;;6.28;;
74042;SDS011;62384;53.600;10.040;2023-03-01T10:32:36;12.40;;;6.93;;
74042;SDS011;62384;53.600;10.040;2023-03-01T10:35:13;14.77;;;6.75;;
74042;SDS011;62384;53.600;10.040;2023-03-01T10:38:11;14.85;;;7.25;;
74042;SDS011;62384;53.600;10.040;2023-03-01T10:40:58;10.55;;;6.03;;
74042;SDS011;62384;53.600;10.040;2023-03-01T10:43:27;16.38;;;6.75;;
74042;SDS011;62384;53.600;10.040;2023-03-01T10:45:57;13.03;;;6.00;;
74042;SDS011;62384;53.600;10.040;2023-03-01T10:48:26;11.32;;;6.13;;
74042;SDS011;62384;53.600;10.040;2023-03-01T10:53:34;7.40;;;4.72;;
74042;SDS011;62384;53.600;10.040;2023-03-01T10:56:03;11.13;;;5.65;;
74042;SDS011;62384;53.600;10.040;2023-03-01T10:58:32;12.50;;;5.30;;
74042;SDS011;62384;53.600;10.040;2023-03-01T11:01:00;11.80;;;5.80;;
74042;SDS011;62384;53.600;10.040;2023-03-01T11:03:34;11.48;;;5.78;;
74042;SDS011;62384;53.600;10.040;2023-03-01T11:08:43;11.93;;;5.90;;
74042;SDS011;62384;53.600;10.040;2023-03-01T11:14:03;9.23;;;4.90;;
74042;SDS011;62384;53.600;10.040;2023-03-01T11:16:34;11.20;;;5.45;;
74042;SDS011;62384;53.600;10.040;2023-03-01T11:19:06;11.20;;;5.65;;
74042;SDS011;62384;53.600;10.040;2023-03-01T11:21:42;9.60;;;5.25;;
74042;SDS011;62384;53.600;10.040;2023-03-01T11:24:15;10.77;;;5.40;;
74042;SDS011;62384;53.600;10.040;2023-03-01T11:26:45;9.85;;;5.05;;
74042;SDS011;62384;53.600;10.040;2023-03-01T11:29:26;8.93;;;5.03;;
74042;SDS011;62384;53.600;10.040;2023-03-01T11:31:57;8.25;;;4.82;;
74042;SDS011;62384;53.600;10.040;2023-03-01T11:37:12;10.57;;;5.35;;
74042;SDS011;62384;53.600;10.040;2023-03-01T11:39:49;14.05;;;5.18;;
74042;SDS011;62384;53.600;10.040;2023-03-01T11:42:27;10.65;;;4.70;;
74042;SDS011;62384;53.600;10.040;2023-03-01T11:45:01;9.70;;;4.53;;
74042;SDS011;62384;53.600;10.040;2023-03-01T12:01:40;9.40;;;3.90;;
74042;SDS011;62384;53.600;10.040;2023-03-01T12:04:48;7.63;;;3.63;;
74042;SDS011;62384;53.600;10.040;2023-03-01T12:07:33;6.57;;;3.50;;
74042;SDS011;62384;53.600;10.040;2023-03-01T12:10:19;6.22;;;3.60;;
74042;SDS011;62384;53.600;10.040;2023-03-01T12:15:38;8.77;;;3.42;;
74042;SDS011;62384;53.600;10.040;2023-03-01T12:23:50;8.15;;;3.33;;
74042;SDS011;62384;53.600;10.040;2023-03-01T12:40:20;7.30;;;3.47;;
74042;SDS011;62384;53.600;10.040;2023-03-01T12:51:11;9.05;;;3.60;;
74042;SDS011;62384;53.600;10.040;2023-03-01T12:53:49;8.40;;;4.40;;
74042;SDS011;62384;53.600;10.040;2023-03-01T12:56:17;9.52;;;4.50;;
74042;SDS011;62384;53.600;10.040;2023-03-01T13:04:38;10.38;;;3.92;;
74042;SDS011;62384;53.600;10.040;2023-03-01T13:07:29;6.13;;;3.72;;
74042;SDS011;62384;53.600;10.040;2023-03-01T13:17:57;7.45;;;4.22;;
74042;SDS011;62384;53.600;10.040;2023-03-01T13:20:29;8.57;;;3.83;;
74042;SDS011;62384;53.600;10.040;2023-03-01T13:25:30;6.90;;;3.85;;
74042;SDS011;62384;53.600;10.040;2023-03-01T13:30:59;8.00;;;3.58;;
74042;SDS011;62384;53.600;10.040;2023-03-01T13:39:01;7.07;;;3.22;;
74042;SDS011;62384;53.600;10.040;2023-03-01T13:41:52;8.40;;;3.40;;
74042;SDS011;62384;53.600;10.040;2023-03-01T13:49:51;7.80;;;3.20;;
74042;SDS011;62384;53.600;10.040;2023-03-01T13:55:00;7.90;;;3.90;;
74042;SDS011;62384;53.600;10.040;2023-03-01T13:57:30;6.03;;;3.35;;
74042;SDS011;62384;53.600;10.040;2023-03-01T13:59:59;8.48;;;4.00;;
74042;SDS011;62384;53.600;10.040;2023-03-01T14:02:31;5.47;;;3.03;;
74042;SDS011;62384;53.600;10.040;2023-03-01T14:04:59;7.55;;;3.40;;
74042;SDS011;62384;53.600;10.040;2023-03-01T14:07:26;7.00;;;3.35;;
74042;SDS011;62384;53.600;10.040;2023-03-01T14:10:02;5.30;;;3.15;;
74042;SDS011;62384;53.600;10.040;2023-03-01T14:16:05;7.93;;;3.08;;
74042;SDS011;62384;53.600;10.040;2023-03-01T14:21:28;9.45;;;3.10;;
74042;SDS011;62384;53.600;10.040;2023-03-01T14:23:54;5.88;;;3.17;;
74042;SDS011;62384;53.600;10.040;2023-03-01T14:26:20;6.40;;;3.25;;
74042;SDS011;62384;53.600;10.040;2023-03-01T14:28:46;8.07;;;3.30;;
74042;SDS011;62384;53.600;10.040;2023-03-01T14:34:04;5.85;;;3.40;;
74042;SDS011;62384;53.600;10.040;2023-03-01T14:36:32;6.75;;;3.10;;
74042;SDS011;62384;53.600;10.040;2023-03-01T14:38:59;6.53;;;3.20;;
74042;SDS011;62384;53.600;10.040;2023-03-01T14:41:30;7.40;;;3.00;;
74042;SDS011;62384;53.600;10.040;2023-03-01T14:44:12;7.38;;;2.78;;
74042;SDS011;62384;53.600;10.040;2023-03-01T14:47:03;6.38;;;2.97;;
74042;SDS011;62384;53.600;10.040;2023-03-01T14:49:30;6.25;;;3.42;;
74042;SDS011;62384;53.600;10.040;2023-03-01T14:51:59;5.35;;;2.70;;
74042;SDS011;62384;53.600;10.040;2023-03-01T14:54:37;8.98;;;3.75;;
74042;SDS011;62384;53.600;10.040;2023-03-01T14:57:12;9.25;;;3.83;;
74042;SDS011;62384;53.600;10.040;2023-03-01T14:59:40;7.45;;;3.45;;
74042;SDS011;62384;53.600;10.040;2023-03-01T15:02:15;8.02;;;4.00;;
74042;SDS011;62384;53.600;10.040;2023-03-01T15:04:48;7.20;;;3.40;;
74042;SDS011;62384;53.600;10.040;2023-03-01T15:07:17;6.30;;;3.40;;
74042;SDS011;62384;53.600;10.040;2023-03-01T15:09:43;4.78;;;3.00;;
74042;SDS011;62384;53.600;10.040;2023-03-01T15:12:34;8.88;;;3.83;;
74042;SDS011;62384;53.600;10.040;2023-03-01T15:15:00;7.43;;;3.15;;
74042;SDS011;62384;53.600;10.040;2023-03-01T15:17:48;8.07;;;3.40;;
74042;SDS011;62384;53.600;10.040;2023-03-01T15:20:18;6.68;;;2.92;;
74042;SDS011;62384;53.600;10.040;2023-03-01T15:22:47;7.20;;;3.38;;
74042;SDS011;62384;53.600;10.040;2023-03-01T15:25:19;7.32;;;3.42;;
74042;SDS011;62384;53.600;10.040;2023-03-01T15:27:49;5.40;;;3.03;;
74042;SDS011;62384;53.600;10.040;2023-03-01T15:30:18;5.38;;;3.10;;
74042;SDS011;62384;53.600;10.040;2023-03-01T15:35:57;6.38;;;2.75;;
74042;SDS011;62384;53.600;10.040;2023-03-01T15:44:16;5.07;;;2.58;;
74042;SDS011;62384;53.600;10.040;2023-03-01T15:46:45;6.85;;;3.00;;
74042;SDS011;62384;53.600;10.040;2023-03-01T15:49:24;5.07;;;2.50;;
74042;SDS011;62384;53.600;10.040;2023-03-01T15:52:02;6.60;;;2.63;;
74042;SDS011;62384;53.600;10.040;2023-03-01T15:54:29;4.70;;;2.28;;
74042;SDS011;62384;53.600;10.040;2023-03-01T15:56:54;5.85;;;2.45;;
74042;SDS011;62384;53.600;10.040;2023-03-01T15:59:20;5.70;;;3.13;;
74042;SDS011;62384;53.600;10.040;2023-03-01T16:01:47;4.38;;;2.90;;
74042;SDS011;62384;53.600;10.040;2023-03-01T16:04:13;6.03;;;2.53;;
74042;SDS011;62384;53.600;10.040;2023-03-01T16:06:46;5.65;;;2.45;;
74042;SDS011;62384;53.600;10.040;2023-03-01T16:09:12;8.60;;;3.38;;
74042;SDS011;62384;53.600;10.040;2023-03-01T16:11:37;5.82;;;3.00;;
74042;SDS011;62384;53.600;10.040;2023-03-01T16:14:04;7.90;;;3.15;;
74042;SDS011;62384;53.600;10.040;2023-03-01T16:19:16;7.15;;;3.63;;
74042;SDS011;62384;53.600;10.040;2023-03-01T16:21:42;8.07;;;4.40;;
74042;SDS011;62384;53.600;10.040;2023-03-01T16:24:09;7.43;;;3.47;;
74042;SDS011;62384;53.600;10.040;2023-03-01T16:26:36;8.20;;;3.90;;
74042;SDS011;62384;53.600;10.040;2023-03-01T16:29:02;7.72;;;4.00;;
74042;SDS011;62384;53.600;10.040;2023-03-01T16:31:28;9.32;;;4.10;;
74042;SDS011;62384;53.600;10.040;2023-03-01T16:33:54;9.82;;;4.63;;
74042;SDS011;62384;53.600;10.040;2023-03-01T16:36:21;11.55;;;5.32;;
74042;SDS011;62384;53.600;10.040;2023-03-01T16:38:51;12.18;;;6.00;;
74042;SDS011;62384;53.600;10.040;2023-03-01T16:41:20;14.77;;;6.68;;